Time;durP1;ratioP1;P1;durP2;ratioP2;P2;SDS_P1;SDS_P2;PMS_P1;PMS_P2;Temp;Humidity;BMP_temperature;BMP_pressure;BME280_temperature;BME280_humidity;BME280_pressure;Samples;Min_cycle;Max_cycle;Signal;HPM_P1;HPM_P2
2023/08/23 00:02:25;;;;;;;1.37;1.27;;;24.40;52.10;;;;;;5011638;28;20931;-73
2023/08/23 00:04:51;;;;;;;1.30;1.20;;;24.40;52.90;;;;;;5008522;28;20264;-73
2023/08/23 00:07:16;;;;;;;1.80;1.17;;;24.40;52.10;;;;;;5009186;28;20236;-73
2023/08/23 00:09:42;;;;;;;1.50;1.40;;;24.40;52.10;;;;;;5009610;28;20230;-73
2023/08/23 00:12:08;;;;;;;1.50;1.40;;;24.50;52.20;;;;;;5012608;28;20233;-73
2023/08/23 00:14:34;;;;;;;1.30;1.20;;;24.40;52.10;;;;;;5009534;28;20222;-73
2023/08/23 00:16:59;;;;;;;1.10;1.00;;;24.40;52.10;;;;;;5010993;28;20338;-73
2023/08/23 00:19:25;;;;;;;1.10;1.00;;;24.40;52.10;;;;;;5011552;28;20498;-73
2023/08/23 00:21:50;;;;;;;1.20;1.10;;;24.40;52.10;;;;;;5011120;28;20626;-72
2023/08/23 00:24:18;;;;;;;1.33;1.23;;;24.40;52.10;;;;;;5011916;28;20669;-73
2023/08/23 00:26:44;;;;;;;1.30;1.20;;;24.40;52.00;;;;;;5011011;28;20226;-73
2023/08/23 00:29:10;;;;;;;1.60;1.50;;;24.40;52.10;;;;;;5010400;28;20483;-73
2023/08/23 00:31:35;;;;;;;1.17;1.07;;;24.40;52.10;;;;;;5013997;28;20233;-72
2023/08/23 00:34:01;;;;;;;1.30;1.20;;;24.40;52.10;;;;;;5010650;28;20225;-72
2023/08/23 00:36:26;;;;;;;1.30;1.20;;;24.40;52.10;;;;;;5010668;28;20661;-72
2023/08/23 00:38:54;;;;;;;1.40;1.30;;;24.40;52.20;;;;;;5011206;28;20700;-72
2023/08/23 00:41:19;;;;;;;1.37;1.27;;;24.40;52.10;;;;;;5009816;28;20230;-72
2023/08/23 00:43:45;;;;;;;1.30;1.20;;;24.40;52.10;;;;;;5010840;28;20487;-73
2023/08/23 00:46:11;;;;;;;1.40;1.30;;;24.40;52.20;;;;;;5010478;28;20306;-72
2023/08/23 00:48:36;;;;;;;1.30;1.20;;;24.40;52.10;;;;;;5009772;28;20238;-72
2023/08/23 00:51:02;;;;;;;1.50;1.40;;;24.40;52.10;;;;;;5009761;28;21134;-73
2023/08/23 00:53:28;;;;;;;1.40;1.30;;;24.40;52.10;;;;;;4993927;28;20234;-72
2023/08/23 00:55:53;;;;;;;1.20;1.10;;;24.40;52.20;;;;;;5010923;28;20316;-71
2023/08/23 00:58:20;;;;;;;1.10;1.00;;;24.40;52.10;;;;;;5010466;28;20257;-70
2023/08/23 01:00:47;;;;;;;1.27;1.17;;;24.40;52.20;;;;;;5007587;28;20222;-71
2023/08/23 01:03:12;;;;;;;1.20;1.10;;;24.40;52.20;;;;;;5009695;28;20497;-71
2023/08/23 01:05:54;;;;;;;1.20;1.10;;;24.40;52.20;;;;;;5008456;28;20459;-71
2023/08/23 01:08:45;;;;;;;1.20;1.10;;;24.40;52.20;;;;;;5006845;28;20217;-70
2023/08/23 01:11:27;;;;;;;1.50;1.40;;;24.40;52.20;;;;;;5008266;28;20463;-71
2023/08/23 01:14:24;;;;;;;1.43;1.33;;;24.40;52.20;;;;;;5008253;28;20502;-70
2023/08/23 01:16:51;;;;;;;1.30;1.20;;;24.40;52.20;;;;;;5005729;28;20494;-69
2023/08/23 01:19:47;;;;;;;1.27;1.17;;;24.40;52.20;;;;;;5007767;28;20967;-70
2023/08/23 01:22:20;;;;;;;1.50;1.40;;;24.40;52.20;;;;;;5007701;28;20463;-70
2023/08/23 01:24:47;;;;;;;1.40;1.30;;;24.40;52.20;;;;;;5011130;28;20471;-72
2023/08/23 01:27:12;;;;;;;1.13;1.10;;;24.40;52.20;;;;;;5013116;28;20466;-71
2023/08/23 01:29:38;;;;;;;1.27;1.17;;;24.40;52.20;;;;;;5012936;28;20463;-72
2023/08/23 01:32:30;;;;;;;1.40;1.30;;;24.40;52.30;;;;;;5014988;28;20241;-71
2023/08/23 01:35:06;;;;;;;1.23;1.13;;;24.40;52.20;;;;;;5014337;28;20238;-74
2023/08/23 01:37:33;;;;;;;1.60;1.50;;;24.40;52.20;;;;;;5014044;28;20482;-70
2023/08/23 01:40:01;;;;;;;1.27;1.17;;;24.40;52.30;;;;;;5009956;28;20463;-71
2023/08/23 01:42:26;;;;;;;1.30;1.20;;;24.40;52.20;;;;;;5010037;28;20452;-72
2023/08/23 01:44:52;;;;;;;1.10;1.10;;;24.40;52.20;;;;;;5012641;28;20472;-72
2023/08/23 01:47:18;;;;;;;2.17;1.40;;;24.40;52.30;;;;;;5009128;28;20272;-72
2023/08/23 01:49:44;;;;;;;1.17;1.10;;;24.40;52.30;;;;;;5010170;28;20313;-72
2023/08/23 01:52:10;;;;;;;1.50;1.40;;;24.40;52.20;;;;;;5010126;28;20477;-72
2023/08/23 01:54:35;;;;;;;1.47;1.30;;;24.40;52.30;;;;;;5011239;28;20297;-72
2023/08/23 01:57:01;;;;;;;1.40;1.30;;;24.40;52.30;;;;;;5013639;28;20305;-72
2023/08/23 01:59:26;;;;;;;1.40;1.30;;;24.40;52.30;;;;;;5013314;28;20515;-72
2023/08/23 02:01:52;;;;;;;1.40;1.30;;;24.40;52.20;;;;;;5013920;28;20743;-72
2023/08/23 02:04:19;;;;;;;1.30;1.20;;;24.40;52.20;;;;;;5012707;28;20222;-72
2023/08/23 02:06:45;;;;;;;1.67;1.57;;;24.30;52.10;;;;;;5013085;28;20346;-72
2023/08/23 02:09:10;;;;;;;1.40;1.30;;;24.40;52.20;;;;;;5015138;28;20938;-72
2023/08/23 02:11:37;;;;;;;1.30;1.20;;;24.30;52.00;;;;;;5013003;28;20237;-72
2023/08/23 02:14:03;;;;;;;1.20;1.10;;;24.30;52.00;;;;;;5012730;28;20300;-72
2023/08/23 02:16:28;;;;;;;1.30;1.20;;;24.40;52.10;;;;;;5013604;28;21398;-72
2023/08/23 02:18:55;;;;;;;1.30;1.20;;;24.30;52.00;;;;;;5010985;28;20436;-72
2023/08/23 02:21:21;;;;;;;1.30;1.20;;;24.30;51.90;;;;;;5011516;28;20222;-72
2023/08/23 02:23:46;;;;;;;1.37;1.27;;;24.30;51.90;;;;;;4993155;28;20462;-72
2023/08/23 02:26:12;;;;;;;1.30;1.20;;;24.30;51.90;;;;;;5011363;28;20218;-72
2023/08/23 02:28:38;;;;;;;1.40;1.30;;;24.30;51.80;;;;;;5012789;28;20221;-72
2023/08/23 02:31:04;;;;;;;1.40;1.30;;;24.30;51.80;;;;;;5011618;28;20459;-72
2023/08/23 02:33:29;;;;;;;1.77;1.27;;;24.30;52.20;;;;;;5015119;28;20237;-72
2023/08/23 02:35:55;;;;;;;1.20;1.10;;;24.30;51.60;;;;;;5012004;28;20772;-72
2023/08/23 02:38:20;;;;;;;1.27;1.17;;;24.30;51.60;;;;;;5012519;28;20230;-72
2023/08/23 02:40:46;;;;;;;1.30;1.20;;;24.30;51.50;;;;;;5010522;28;20849;-72
2023/08/23 02:43:12;;;;;;;1.50;1.40;;;24.30;51.40;;;;;;5013271;28;20344;-72
2023/08/23 02:45:41;;;;;;;1.50;1.40;;;24.30;51.30;;;;;;5011039;28;20297;-72
2023/08/23 02:48:10;;;;;;;1.50;1.40;;;24.30;51.30;;;;;;5013297;28;20472;-72
2023/08/23 02:50:36;;;;;;;1.30;1.20;;;24.30;51.20;;;;;;5012365;28;20468;-71
2023/08/23 02:53:02;;;;;;;1.40;1.30;;;24.30;51.10;;;;;;4996970;28;20497;-72
2023/08/23 02:55:28;;;;;;;1.60;1.50;;;24.30;51.00;;;;;;5009270;28;20510;-70
2023/08/23 02:57:53;;;;;;;2.37;1.40;;;24.30;50.90;;;;;;4989759;28;20222;-71
2023/08/23 03:00:19;;;;;;;1.23;1.13;;;24.30;50.90;;;;;;4991002;28;20228;-71
2023/08/23 03:02:44;;;;;;;1.27;1.17;;;24.30;50.80;;;;;;5011149;28;20229;-71
2023/08/23 03:05:10;;;;;;;1.30;1.20;;;24.30;50.80;;;;;;4995089;28;21249;-71
2023/08/23 03:07:35;;;;;;;1.40;1.30;;;24.30;50.70;;;;;;4992473;28;20218;-72
2023/08/23 03:10:01;;;;;;;1.47;1.10;;;24.30;50.60;;;;;;5011680;28;20218;-71
2023/08/23 03:12:26;;;;;;;1.30;1.20;;;24.30;50.50;;;;;;5012452;28;20245;-70
2023/08/23 03:14:52;;;;;;;1.23;1.13;;;24.30;50.50;;;;;;5011857;28;20827;-72
2023/08/23 03:17:17;;;;;;;1.53;1.43;;;24.30;50.40;;;;;;5009672;28;20246;-71
2023/08/23 03:19:43;;;;;;;1.20;1.10;;;24.30;50.40;;;;;;5011789;28;20230;-72
2023/08/23 03:22:08;;;;;;;1.40;1.30;;;24.30;50.30;;;;;;5010919;28;20682;-71
2023/08/23 03:24:34;;;;;;;1.30;1.20;;;24.30;50.20;;;;;;5012143;28;20249;-72
2023/08/23 03:26:59;;;;;;;1.33;1.23;;;24.30;50.10;;;;;;5011793;28;20305;-72
2023/08/23 03:29:25;;;;;;;1.57;1.30;;;24.30;50.10;;;;;;5012385;28;20236;-72
2023/08/23 03:31:50;;;;;;;1.20;1.10;;;24.30;50.00;;;;;;5011313;28;20222;-72
2023/08/23 03:34:16;;;;;;;1.20;1.10;;;24.30;49.90;;;;;;5010178;28;20214;-72
2023/08/23 03:36:42;;;;;;;1.30;1.20;;;24.30;49.80;;;;;;5008064;28;20718;-72
2023/08/23 03:39:07;;;;;;;1.73;1.30;;;24.30;49.80;;;;;;5012091;28;20223;-72
2023/08/23 03:41:32;;;;;;;1.30;1.20;;;24.30;49.70;;;;;;5010394;28;20698;-72
2023/08/23 03:43:58;;;;;;;1.60;1.23;;;24.30;50.40;;;;;;5010762;28;20226;-72
2023/08/23 03:46:25;;;;;;;1.30;1.20;;;24.30;49.60;;;;;;5009448;28;20434;-72
2023/08/23 03:48:51;;;;;;;1.23;1.13;;;24.30;49.50;;;;;;5006464;28;20621;-72
2023/08/23 03:51:17;;;;;;;1.20;1.10;;;24.30;49.50;;;;;;5012744;28;20526;-72
2023/08/23 03:53:42;;;;;;;1.30;1.20;;;24.30;49.30;;;;;;5009489;28;20226;-72
2023/08/23 03:56:08;;;;;;;1.40;1.30;;;24.30;49.20;;;;;;5009135;28;20246;-71
2023/08/23 03:58:34;;;;;;;1.30;1.20;;;24.30;49.10;;;;;;5011867;28;20313;-72
2023/08/23 04:01:00;;;;;;;2.80;1.20;;;24.30;49.10;;;;;;4990668;28;20222;-72
2023/08/23 04:03:25;;;;;;;2.23;1.20;;;24.30;49.00;;;;;;5006795;28;20459;-72
2023/08/23 04:05:51;;;;;;;1.20;1.10;;;24.30;49.10;;;;;;5008770;28;20222;-71
2023/08/23 04:08:17;;;;;;;1.50;1.40;;;24.30;49.00;;;;;;5011479;28;20245;-71
2023/08/23 04:10:49;;;;;;;1.30;1.20;;;24.30;48.90;;;;;;4991456;28;21140;-72
2023/08/23 04:13:16;;;;;;;1.50;1.40;;;24.30;48.80;;;;;;5014193;28;20265;-72
2023/08/23 04:15:43;;;;;;;1.50;1.40;;;24.30;48.70;;;;;;5011549;28;20526;-72
2023/08/23 04:18:08;;;;;;;1.63;1.53;;;24.30;48.50;;;;;;5010844;28;20467;-71
2023/08/23 04:20:34;;;;;;;1.60;1.50;;;24.30;48.50;;;;;;5010944;28;20463;-72
2023/08/23 04:22:59;;;;;;;1.33;1.23;;;24.30;49.20;;;;;;5007980;28;20220;-71
2023/08/23 04:25:25;;;;;;;1.40;1.30;;;24.30;48.50;;;;;;5009777;28;20238;-72
2023/08/23 04:27:51;;;;;;;1.53;1.43;;;24.30;48.50;;;;;;5011394;28;20254;-71
2023/08/23 04:30:17;;;;;;;2.30;1.40;;;24.30;48.50;;;;;;5011537;28;21509;-72
2023/08/23 04:32:42;;;;;;;1.90;1.80;;;24.30;48.50;;;;;;5012386;28;20772;-72
2023/08/23 04:35:08;;;;;;;1.67;1.57;;;24.30;48.50;;;;;;5010304;28;20728;-72
2023/08/23 04:37:33;;;;;;;1.50;1.40;;;24.30;48.30;;;;;;5011118;28;20218;-71
2023/08/23 04:39:59;;;;;;;2.13;1.40;;;24.30;48.10;;;;;;5020902;28;20584;-71
2023/08/23 04:42:24;;;;;;;2.03;1.50;;;24.30;48.10;;;;;;5009204;28;20230;-72
2023/08/23 04:44:50;;;;;;;1.50;1.40;;;24.30;48.00;;;;;;5004396;28;20234;-72
2023/08/23 04:47:15;;;;;;;1.80;1.27;;;24.30;47.90;;;;;;5006993;28;20744;-71
2023/08/23 04:49:41;;;;;;;1.57;1.40;;;24.30;47.90;;;;;;5009553;28;20628;-73
2023/08/23 04:52:06;;;;;;;1.60;1.50;;;24.30;47.80;;;;;;5009897;28;20674;-72
2023/08/23 04:54:32;;;;;;;3.00;1.50;;;24.30;47.80;;;;;;4989114;28;20665;-73
2023/08/23 04:56:58;;;;;;;1.70;1.60;;;24.30;47.70;;;;;;5011677;28;20219;-73
2023/08/23 04:59:23;;;;;;;1.83;1.43;;;24.30;47.60;;;;;;5010697;28;20233;-75
2023/08/23 05:01:49;;;;;;;1.50;1.40;;;24.30;47.60;;;;;;5004758;28;20959;-80
2023/08/23 05:04:17;;;;;;;1.40;1.30;;;24.30;47.60;;;;;;5011894;28;20210;-70
2023/08/23 05:06:42;;;;;;;1.63;1.47;;;24.30;47.50;;;;;;5015656;28;20221;-68
2023/08/23 05:09:08;;;;;;;1.83;1.40;;;24.30;47.60;;;;;;5011929;28;20517;-73
2023/08/23 05:11:33;;;;;;;1.50;1.40;;;24.30;47.50;;;;;;4994904;28;20222;-73
2023/08/23 05:13:59;;;;;;;1.60;1.30;;;24.30;47.50;;;;;;5005062;28;20276;-72
2023/08/23 05:16:25;;;;;;;2.60;1.53;;;24.30;47.50;;;;;;5005164;28;20673;-71
2023/08/23 05:18:50;;;;;;;5.37;1.30;;;24.30;47.50;;;;;;5010227;28;20218;-73
2023/08/23 05:21:16;;;;;;;2.73;2.53;;;24.30;47.40;;;;;;4983958;28;20698;-72
2023/08/23 05:23:41;;;;;;;1.40;1.30;;;24.30;47.40;;;;;;5004644;28;20226;-72
2023/08/23 05:26:07;;;;;;;1.80;1.70;;;24.40;47.50;;;;;;5002234;28;20277;-72
2023/08/23 05:28:32;;;;;;;1.40;1.30;;;24.30;47.40;;;;;;5003698;28;20225;-73
2023/08/23 05:31:00;;;;;;;1.70;1.60;;;24.30;47.30;;;;;;4989286;28;20300;-74
2023/08/23 05:33:25;;;;;;;3.47;1.50;;;24.30;47.30;;;;;;5005507;28;20238;-72
2023/08/23 05:35:51;;;;;;;1.57;1.47;;;24.30;47.40;;;;;;5010422;28;20495;-73
2023/08/23 05:38:16;;;;;;;1.53;1.43;;;24.30;47.30;;;;;;5010768;28;20488;-72
2023/08/23 05:40:42;;;;;;;1.50;1.40;;;24.30;47.30;;;;;;5012558;28;20356;-73
2023/08/23 05:43:07;;;;;;;1.60;1.50;;;24.30;47.30;;;;;;5012544;28;20312;-73
2023/08/23 05:45:33;;;;;;;2.13;1.40;;;24.30;47.20;;;;;;5011782;28;20287;-73
2023/08/23 05:47:59;;;;;;;2.10;1.40;;;24.30;47.20;;;;;;5013418;28;20226;-74
2023/08/23 05:50:25;;;;;;;1.70;1.60;;;24.30;47.10;;;;;;5009431;28;20222;-73
2023/08/23 05:52:51;;;;;;;1.67;1.53;;;24.30;47.80;;;;;;4988164;28;20483;-73
2023/08/23 05:55:19;;;;;;;1.80;1.70;;;24.30;47.00;;;;;;5011148;28;20231;-73
2023/08/23 05:57:45;;;;;;;1.67;1.57;;;24.30;47.00;;;;;;4984089;28;20237;-73
2023/08/23 06:00:11;;;;;;;1.80;1.70;;;24.30;47.00;;;;;;5007493;28;20459;-73
2023/08/23 06:02:37;;;;;;;1.80;1.70;;;24.30;47.00;;;;;;5000464;28;20230;-73
2023/08/23 06:05:03;;;;;;;2.73;1.47;;;24.30;47.00;;;;;;5001267;28;20467;-73
2023/08/23 06:07:29;;;;;;;1.70;1.60;;;24.30;47.10;;;;;;5010330;28;20488;-73
2023/08/23 06:09:55;;;;;;;1.70;1.60;;;24.30;47.10;;;;;;5008528;28;20468;-73
2023/08/23 06:12:24;;;;;;;1.70;1.60;;;24.30;47.20;;;;;;5010495;28;20230;-73
2023/08/23 06:14:49;;;;;;;1.50;1.40;;;24.30;47.20;;;;;;5011850;28;20860;-73
2023/08/23 06:17:16;;;;;;;1.70;1.50;;;24.30;47.20;;;;;;4994363;28;20464;-73
2023/08/23 06:19:42;;;;;;;1.60;1.50;;;24.30;47.30;;;;;;4995728;28;20861;-73
2023/08/23 06:22:08;;;;;;;1.50;1.40;;;24.30;47.30;;;;;;5006317;28;20475;-73
2023/08/23 06:24:34;;;;;;;3.23;1.77;;;24.30;47.40;;;;;;5010003;28;20475;-73
2023/08/23 06:26:59;;;;;;;1.60;1.50;;;24.30;47.60;;;;;;5002767;28;20237;-73
2023/08/23 06:29:28;;;;;;;1.60;1.43;;;24.30;47.60;;;;;;5005747;28;20232;-73
2023/08/23 06:31:54;;;;;;;1.60;1.50;;;24.30;47.70;;;;;;5011504;28;20238;-73
2023/08/23 06:34:19;;;;;;;1.40;1.30;;;24.30;47.80;;;;;;5009203;28;20976;-75
2023/08/23 06:36:45;;;;;;;2.03;1.83;;;24.30;48.00;;;;;;5009892;28;20250;-73
2023/08/23 06:39:11;;;;;;;1.63;1.53;;;24.30;48.30;;;;;;5002635;28;20227;-73
2023/08/23 06:41:37;;;;;;;2.53;1.63;;;24.30;48.50;;;;;;5004854;28;20226;-73
2023/08/23 06:44:03;;;;;;;2.10;1.93;;;24.40;48.60;;;;;;5014283;28;20215;-73
2023/08/23 06:46:28;;;;;;;1.93;1.83;;;24.40;48.60;;;;;;5010894;28;20476;-73
2023/08/23 06:48:55;;;;;;;1.90;1.80;;;24.40;48.60;;;;;;5003925;28;20599;-73
2023/08/23 06:51:21;;;;;;;2.13;1.97;;;24.40;48.60;;;;;;5012136;28;20219;-74
2023/08/23 06:53:47;;;;;;;2.10;1.97;;;24.40;48.60;;;;;;5013865;28;20479;-74
2023/08/23 06:56:13;;;;;;;2.83;2.57;;;24.40;48.60;;;;;;5002313;28;20226;-71
2023/08/23 06:58:39;;;;;;;4.70;1.90;;;24.40;48.60;;;;;;5002500;28;20456;-73
2023/08/23 07:01:07;;;;;;;2.13;2.00;;;24.40;48.60;;;;;;5008787;28;20322;-71
2023/08/23 07:03:32;;;;;;;2.37;2.20;;;24.40;48.60;;;;;;5009980;28;20232;-71
2023/08/23 07:05:58;;;;;;;2.20;2.10;;;24.40;48.60;;;;;;5002910;28;20464;-71
2023/08/23 07:08:24;;;;;;;2.10;2.00;;;24.40;48.60;;;;;;5003404;28;20227;-71
2023/08/23 07:10:50;;;;;;;2.37;2.27;;;24.40;48.60;;;;;;5003498;28;20689;-71
2023/08/23 07:13:16;;;;;;;2.60;2.40;;;24.40;48.60;;;;;;5006249;28;20970;-73
2023/08/23 07:15:41;;;;;;;2.13;2.03;;;24.40;48.60;;;;;;5007617;28;20628;-71
2023/08/23 07:18:10;;;;;;;2.00;1.90;;;24.40;48.50;;;;;;5008382;28;20467;-72
2023/08/23 07:20:36;;;;;;;2.07;1.97;;;24.40;48.60;;;;;;5007292;28;20226;-72
2023/08/23 07:23:03;;;;;;;4.43;2.10;;;24.40;48.60;;;;;;5009151;28;20836;-72
2023/08/23 07:25:29;;;;;;;1.87;1.77;;;24.40;48.60;;;;;;5005414;28;20846;-71
2023/08/23 07:27:54;;;;;;;2.20;2.00;;;24.40;48.60;;;;;;5005758;28;20476;-72
2023/08/23 07:30:20;;;;;;;2.33;1.90;;;24.40;48.60;;;;;;5006652;28;20285;-72
2023/08/23 07:32:45;;;;;;;2.60;2.10;;;24.40;48.60;;;;;;5006322;28;20238;-72
2023/08/23 07:35:11;;;;;;;2.40;2.30;;;24.40;48.60;;;;;;5006204;28;20798;-72
2023/08/23 07:37:38;;;;;;;2.30;2.20;;;24.40;48.60;;;;;;5006492;28;20218;-72
2023/08/23 07:40:04;;;;;;;6.33;2.60;;;24.40;48.60;;;;;;5007185;28;20218;-71
2023/08/23 07:42:30;;;;;;;2.50;2.40;;;24.40;48.60;;;;;;5006613;28;20558;-72
2023/08/23 07:44:55;;;;;;;2.23;2.07;;;24.40;48.70;;;;;;5005938;28;20463;-72
2023/08/23 07:47:21;;;;;;;2.30;2.20;;;24.40;48.60;;;;;;4989840;28;20503;-71
2023/08/23 07:49:47;;;;;;;2.13;2.00;;;24.40;48.60;;;;;;5005961;28;20245;-73
2023/08/23 07:52:13;;;;;;;2.37;2.27;;;24.40;48.60;;;;;;5008603;28;20643;-71
2023/08/23 07:54:38;;;;;;;2.40;2.30;;;24.40;48.60;;;;;;5003237;28;20238;-71
2023/08/23 07:57:04;;;;;;;2.30;2.10;;;24.40;48.70;;;;;;5003159;28;21316;-73
2023/08/23 07:59:29;;;;;;;2.57;2.37;;;24.40;48.60;;;;;;5007413;28;20224;-71
2023/08/23 08:01:55;;;;;;;1.87;1.77;;;24.40;48.60;;;;;;5004984;28;20242;-71
2023/08/23 08:04:20;;;;;;;2.20;2.10;;;24.40;48.60;;;;;;5008386;28;20781;-75
2023/08/23 08:06:46;;;;;;;1.80;1.70;;;24.40;48.60;;;;;;5009394;28;21160;-75
2023/08/23 08:09:11;;;;;;;2.00;1.90;;;24.40;48.60;;;;;;5006455;28;20218;-74
2023/08/23 08:11:37;;;;;;;2.07;1.87;;;24.40;48.60;;;;;;4987946;28;20234;-76
2023/08/23 08:14:02;;;;;;;1.80;1.70;;;24.40;48.60;;;;;;4980257;28;20332;-74
2023/08/23 08:16:28;;;;;;;1.93;1.83;;;24.40;48.60;;;;;;4997247;28;20273;-75
2023/08/23 08:18:53;;;;;;;2.20;2.03;;;24.40;48.60;;;;;;5001801;28;20222;-75
2023/08/23 08:21:19;;;;;;;2.20;2.00;;;24.40;48.60;;;;;;5001592;28;20210;-74
2023/08/23 08:23:48;;;;;;;2.17;2.07;;;24.40;48.60;;;;;;5008184;28;20221;-75
2023/08/23 08:26:14;;;;;;;2.13;2.03;;;24.40;48.60;;;;;;5003519;28;20226;-75
2023/08/23 08:28:43;;;;;;;1.63;1.53;;;24.40;48.70;;;;;;5005189;28;20463;-74
2023/08/23 08:31:13;;;;;;;2.67;2.57;;;24.40;48.90;;;;;;5001963;28;20468;-74
2023/08/23 08:33:39;;;;;;;2.10;2.00;;;24.40;48.80;;;;;;5002150;28;20843;-73
2023/08/23 08:36:04;;;;;;;2.37;2.17;;;24.40;48.90;;;;;;5003719;28;20460;-73
2023/08/23 08:38:30;;;;;;;1.70;1.60;;;24.40;49.00;;;;;;5010004;28;20241;-74
2023/08/23 08:40:56;;;;;;;2.00;1.90;;;24.40;49.10;;;;;;5007918;28;20221;-74
2023/08/23 08:43:22;;;;;;;1.90;1.80;;;24.40;49.10;;;;;;5013032;28;20726;-74
2023/08/23 08:45:48;;;;;;;1.97;1.87;;;24.40;49.20;;;;;;5010082;28;20313;-74
2023/08/23 08:48:14;;;;;;;1.97;1.87;;;24.40;49.20;;;;;;5009313;28;20495;-74
2023/08/23 08:50:42;;;;;;;2.33;2.13;;;24.40;49.30;;;;;;5009177;28;20222;-74
2023/08/23 08:53:13;;;;;;;2.20;2.10;;;24.50;49.30;;;;;;5010925;28;20484;-75
2023/08/23 08:55:39;;;;;;;2.10;2.00;;;24.40;49.30;;;;;;5006572;28;20473;-73
2023/08/23 08:58:06;;;;;;;2.50;2.40;;;24.50;49.40;;;;;;5009215;28;20974;-75
2023/08/23 09:00:33;;;;;;;2.20;2.10;;;24.50;49.40;;;;;;5008922;28;20471;-74
2023/08/23 09:02:59;;;;;;;2.33;2.17;;;24.50;49.50;;;;;;5008693;28;20887;-74
2023/08/23 09:05:25;;;;;;;2.00;1.90;;;24.50;49.50;;;;;;5006800;28;20595;-73
2023/08/23 09:07:52;;;;;;;2.80;2.33;;;24.50;49.50;;;;;;5007921;28;20476;-74
2023/08/23 09:10:17;;;;;;;2.00;1.90;;;24.50;50.30;;;;;;4989185;28;21000;-74
2023/08/23 09:12:43;;;;;;;1.93;1.83;;;24.50;49.50;;;;;;5008241;28;20482;-75
2023/08/23 09:15:09;;;;;;;2.20;2.00;;;24.50;49.50;;;;;;5003277;28;20757;-73
2023/08/23 09:17:36;;;;;;;2.00;1.90;;;24.50;49.50;;;;;;5006872;28;20230;-71
2023/08/23 09:20:08;;;;;;;2.03;1.93;;;24.50;49.60;;;;;;5007078;28;20232;-71
2023/08/23 09:22:34;;;;;;;2.00;1.90;;;24.50;49.70;;;;;;5005816;28;20970;-70
2023/08/23 09:25:04;;;;;;;2.63;1.90;;;24.50;49.60;;;;;;5002458;28;22319;-74
2023/08/23 09:27:30;;;;;;;2.20;1.87;;;24.50;49.70;;;;;;5003731;28;20467;-73
2023/08/23 09:29:57;;;;;;;2.20;2.03;;;24.50;49.70;;;;;;5005076;28;20478;-71
2023/08/23 09:32:24;;;;;;;2.10;2.00;;;24.50;49.70;;;;;;5004845;28;20388;-73
2023/08/23 09:34:50;;;;;;;2.00;1.90;;;24.50;49.70;;;;;;5004926;28;21321;-71
2023/08/23 09:37:17;;;;;;;2.27;2.10;;;24.50;49.70;;;;;;5007148;28;20557;-73
2023/08/23 09:39:43;;;;;;;2.13;2.00;;;24.50;49.70;;;;;;5003911;28;20246;-73
2023/08/23 09:42:13;;;;;;;1.90;1.80;;;24.50;49.80;;;;;;5005463;28;20482;-71
2023/08/23 09:44:46;;;;;;;2.10;2.00;;;24.50;49.80;;;;;;5004304;28;20226;-74
2023/08/23 09:47:20;;;;;;;2.03;1.93;;;24.50;49.80;;;;;;5007024;28;20471;-73
2023/08/23 09:49:47;;;;;;;2.30;2.20;;;24.50;49.80;;;;;;5008886;28;21035;-74
2023/08/23 09:52:13;;;;;;;2.50;2.40;;;24.50;49.80;;;;;;5008469;28;20467;-73
2023/08/23 09:54:49;;;;;;;2.10;2.00;;;24.50;49.80;;;;;;5006309;28;20502;-74
2023/08/23 09:57:17;;;;;;;2.00;1.90;;;24.50;49.80;;;;;;5008434;28;20288;-73
2023/08/23 09:59:43;;;;;;;2.20;2.10;;;24.50;49.90;;;;;;5007884;28;21011;-74
2023/08/23 10:02:10;;;;;;;2.20;2.10;;;24.50;49.90;;;;;;5008257;28;20471;-73
2023/08/23 10:04:39;;;;;;;2.40;2.30;;;24.50;49.90;;;;;;5006835;28;20681;-73
2023/08/23 10:07:06;;;;;;;1.90;1.80;;;24.50;50.00;;;;;;5007321;28;20999;-74
2023/08/23 10:09:33;;;;;;;2.30;2.20;;;24.60;50.00;;;;;;5007680;28;20570;-73
2023/08/23 10:12:00;;;;;;;2.40;2.30;;;24.50;50.00;;;;;;5007491;28;21441;-73
2023/08/23 10:14:26;;;;;;;2.20;2.10;;;24.50;50.00;;;;;;5006138;28;20475;-73
2023/08/23 10:16:52;;;;;;;2.20;2.10;;;24.50;50.00;;;;;;5006993;28;20782;-74
2023/08/23 10:19:20;;;;;;;2.10;2.00;;;24.60;50.00;;;;;;5007725;28;20744;-73
2023/08/23 10:21:45;;;;;;;1.97;1.87;;;24.50;50.00;;;;;;5008200;28;20482;-73
2023/08/23 10:24:11;;;;;;;2.07;1.97;;;24.60;50.10;;;;;;5007544;28;20541;-73
2023/08/23 10:26:45;;;;;;;2.23;2.13;;;24.60;50.10;;;;;;4991895;28;20760;-74
2023/08/23 10:29:11;;;;;;;2.13;2.03;;;24.60;50.10;;;;;;5007366;28;20493;-73
2023/08/23 10:31:36;;;;;;;2.10;1.90;;;24.60;50.10;;;;;;5008808;28;20463;-73
2023/08/23 10:34:02;;;;;;;2.27;2.17;;;24.60;50.10;;;;;;5009647;28;20232;-73
2023/08/23 10:36:30;;;;;;;2.67;2.57;;;24.60;50.10;;;;;;5003799;28;20927;-73
2023/08/23 10:38:56;;;;;;;2.73;2.53;;;24.60;50.10;;;;;;4977368;28;20701;-74
2023/08/23 10:41:25;;;;;;;2.10;2.00;;;24.60;50.20;;;;;;4997777;28;20491;-74
2023/08/23 10:43:52;;;;;;;2.03;1.93;;;24.60;50.10;;;;;;4996523;28;21445;-73
2023/08/23 10:46:19;;;;;;;2.30;2.20;;;24.60;50.20;;;;;;4994749;28;20464;-75
2023/08/23 10:48:46;;;;;;;2.17;2.07;;;24.60;50.20;;;;;;5001383;28;21569;-73
2023/08/23 10:51:12;;;;;;;2.20;2.10;;;24.60;50.20;;;;;;5002679;28;20459;-74
2023/08/23 10:53:40;;;;;;;2.43;2.23;;;24.60;50.20;;;;;;5002968;28;20857;-73
2023/08/23 10:56:06;;;;;;;2.23;2.13;;;24.60;50.20;;;;;;4979311;28;21077;-73
2023/08/23 10:58:34;;;;;;;2.57;2.47;;;24.60;50.30;;;;;;5004504;28;20498;-73
2023/08/23 11:01:01;;;;;;;2.40;2.30;;;24.60;50.20;;;;;;5000901;28;20735;-72
2023/08/23 11:03:34;;;;;;;2.20;2.10;;;24.60;50.20;;;;;;5004305;28;20440;-72
2023/08/23 11:06:00;;;;;;;2.10;2.00;;;24.60;50.20;;;;;;5000866;28;20459;-73
2023/08/23 11:08:25;;;;;;;3.00;2.80;;;24.60;50.20;;;;;;5004918;28;20464;-72
2023/08/23 11:10:51;;;;;;;2.63;2.53;;;24.60;50.20;;;;;;5006007;28;20229;-73
2023/08/23 11:13:16;;;;;;;2.20;2.10;;;24.60;50.20;;;;;;5006366;28;20320;-73
2023/08/23 11:15:45;;;;;;;2.40;2.30;;;24.60;50.20;;;;;;5004488;28;20253;-73
2023/08/23 11:18:15;;;;;;;2.30;2.20;;;24.60;50.20;;;;;;5004991;28;20317;-73
2023/08/23 11:20:41;;;;;;;2.33;2.23;;;24.60;50.20;;;;;;5004299;28;20464;-73
2023/08/23 11:23:06;;;;;;;2.57;2.37;;;24.60;50.30;;;;;;5006111;28;21130;-74
2023/08/23 11:25:32;;;;;;;2.53;2.33;;;24.60;50.30;;;;;;5004289;28;20479;-72
2023/08/23 11:27:58;;;;;;;2.27;2.17;;;24.60;50.30;;;;;;5006239;28;20309;-74
2023/08/23 11:30:23;;;;;;;2.20;2.10;;;24.70;50.30;;;;;;5003532;28;20244;-72
2023/08/23 11:32:49;;;;;;;2.40;2.20;;;24.60;50.20;;;;;;5008019;28;20367;-71
2023/08/23 11:35:18;;;;;;;2.30;2.20;;;24.60;50.30;;;;;;5002782;28;20265;-72
2023/08/23 11:37:47;;;;;;;2.30;2.20;;;24.60;50.20;;;;;;5007919;28;21688;-71
2023/08/23 11:40:15;;;;;;;2.20;2.10;;;24.60;50.30;;;;;;5007070;28;20487;-74
2023/08/23 11:42:40;;;;;;;2.40;2.30;;;24.60;50.30;;;;;;5008432;28;20507;-72
2023/08/23 11:45:07;;;;;;;2.20;2.10;;;24.60;50.30;;;;;;5007082;28;20460;-72
2023/08/23 11:47:35;;;;;;;2.20;2.00;;;24.60;50.30;;;;;;5007848;28;20547;-72
2023/08/23 11:50:02;;;;;;;3.33;3.03;;;24.60;50.30;;;;;;5006664;28;20464;-72
2023/08/23 11:52:29;;;;;;;2.17;2.07;;;24.60;50.30;;;;;;5008298;28;20479;-72
2023/08/23 11:54:55;;;;;;;2.20;2.10;;;24.60;50.30;;;;;;5007910;28;20468;-72
2023/08/23 11:57:21;;;;;;;2.50;2.30;;;24.70;50.40;;;;;;5005340;28;20822;-73
2023/08/23 11:59:47;;;;;;;2.27;2.17;;;24.70;50.50;;;;;;5005958;28;20215;-71
2023/08/23 12:02:13;;;;;;;2.33;2.23;;;24.70;50.50;;;;;;5005321;28;20708;-72
2023/08/23 12:04:42;;;;;;;2.50;2.40;;;24.70;50.50;;;;;;5007894;28;20215;-71
2023/08/23 12:07:12;;;;;;;2.57;2.47;;;24.70;50.40;;;;;;5005421;28;20311;-72
2023/08/23 12:09:39;;;;;;;2.00;1.90;;;24.70;50.50;;;;;;5005750;28;20464;-71
2023/08/23 12:12:06;;;;;;;2.57;2.47;;;24.70;50.50;;;;;;5007707;28;20474;-71
2023/08/23 12:14:31;;;;;;;5.73;2.50;;;24.70;50.50;;;;;;5004940;28;21204;-73
2023/08/23 12:16:57;;;;;;;2.07;1.97;;;24.70;50.50;;;;;;5004968;28;20475;-74
2023/08/23 12:19:22;;;;;;;2.50;2.30;;;24.70;50.50;;;;;;5009096;28;20314;-72
2023/08/23 12:21:49;;;;;;;2.30;2.20;;;24.70;50.50;;;;;;5005349;28;20230;-73
2023/08/23 12:24:15;;;;;;;2.20;2.10;;;24.70;50.50;;;;;;5005449;28;20725;-72
2023/08/23 12:26:40;;;;;;;2.67;2.47;;;24.70;50.50;;;;;;5002898;28;20464;-73
2023/08/23 12:29:06;;;;;;;2.17;2.07;;;24.70;50.50;;;;;;5004272;28;21697;-73
2023/08/23 12:31:32;;;;;;;2.27;2.17;;;24.70;50.40;;;;;;5002787;28;20613;-72
2023/08/23 12:33:57;;;;;;;2.50;2.40;;;24.70;50.40;;;;;;5003162;28;20607;-72
2023/08/23 12:36:24;;;;;;;2.57;2.47;;;24.70;50.40;;;;;;5004010;28;20234;-72
2023/08/23 12:38:50;;;;;;;2.10;2.00;;;24.70;50.50;;;;;;4985971;28;20271;-72
2023/08/23 12:41:16;;;;;;;2.67;2.47;;;24.70;50.50;;;;;;5002843;28;20475;-72
2023/08/23 12:43:41;;;;;;;2.03;1.90;;;24.70;50.40;;;;;;5002760;28;20368;-73
2023/08/23 12:46:07;;;;;;;2.10;2.00;;;24.70;50.50;;;;;;4998581;28;20249;-74